ADDS METAR Data INFO
IDs: Format: Raw Decoded Include TAF

Data at: 1025 UTC 16 Aug 2018

METAR for:KZZV (Zanesville Muni, OH, US)
Text:KZZV 160953Z AUTO 18004KT 7SM CLR 21/19 A3007 RMK AO2 SLP173 T02110194
Temperature: 21.1°C ( 70°F)
Dewpoint: 19.4°C ( 67°F) [RH = 90%]
Pressure (altimeter):30.07 inches Hg (1018.4 mb) [Sea level pressure: 1017.3 mb]
Winds:from the S (180 degrees) at 5 MPH (4 knots; 2.1 m/s)
Visibility: 7 sm ( 11 km)
Ceiling:at least 12,000 feet AGL
Clouds:sky clear below 12,000 feet AGL
QC Flag:automated observation with no human augmentation